createdAt,value
2023-03-01T13:00:23.560Z,64.28
2023-03-01T13:02:56.616Z,65.71
2023-03-01T13:05:39.386Z,67.37
2023-03-01T13:08:05.795Z,66.24
2023-03-01T13:10:39.699Z,65.79
2023-03-01T13:13:27.253Z,66.17
2023-03-01T13:15:54.749Z,64.78
2023-03-01T13:18:22.983Z,63.87
2023-03-01T13:20:51.606Z,65.64
2023-03-01T13:23:23.919Z,67.40
2023-03-01T13:26:15.373Z,67.94
2023-03-01T13:28:44.995Z,69.21
2023-03-01T13:31:31.479Z,70.09
2023-03-01T13:33:59.647Z,69.32
2023-03-01T13:36:29.216Z,70.13
2023-03-01T13:38:59.751Z,71.54
2023-03-01T13:41:44.648Z,72.75
2023-03-01T13:44:14.297Z,73.03
2023-03-01T13:46:41.064Z,74.33
2023-03-01T13:49:14.344Z,75.28
2023-03-01T13:51:40.801Z,75.94
2023-03-01T13:54:12.573Z,74.48
2023-03-01T13:56:39.450Z,74.31
2023-03-01T13:59:14.303Z,73.95
2023-03-01T14:01:43.647Z,75.15
2023-03-01T14:04:29.095Z,74.27
2023-03-01T14:07:18.170Z,75.80
2023-03-01T14:09:46.402Z,76.55
2023-03-01T14:12:22.318Z,77.23
2023-03-01T14:14:55.583Z,77.52
2023-03-01T14:17:31.662Z,76.71
2023-03-01T14:20:05.417Z,75.79
2023-03-01T14:22:34.858Z,75.59
2023-03-01T14:25:06.373Z,75.78
2023-03-01T14:27:42.813Z,75.28
2023-03-01T14:30:16.341Z,75.85
2023-03-01T14:32:42.825Z,76.34
2023-03-01T14:35:32.473Z,77.72
2023-03-01T14:37:59.401Z,77.77
2023-03-01T14:40:31.887Z,77.37
2023-03-01T14:43:00.708Z,77.73
2023-03-01T14:45:30.043Z,76.65
2023-03-01T14:48:00.614Z,76.53
2023-03-01T14:50:30.085Z,76.12
2023-03-01T14:53:03.025Z,74.29
2023-03-01T14:55:36.476Z,74.94
2023-03-01T14:58:10.045Z,75.30
2023-03-01T15:00:36.977Z,75.65
2023-03-01T15:03:14.317Z,74.85
2023-03-01T15:05:42.994Z,75.50
2023-03-01T15:08:19.280Z,76.42
2023-03-01T15:10:58.862Z,74.75
2023-03-01T15:13:29.865Z,75.26
2023-03-01T15:16:08.309Z,76.32
2023-03-01T15:18:35.560Z,76.27
2023-03-01T15:21:25.861Z,76.24
2023-03-01T15:23:58.207Z,76.35
2023-03-01T15:26:40.511Z,76.85
2023-03-01T15:29:19.011Z,76.81
2023-03-01T15:32:04.730Z,78.00
2023-03-01T15:34:33.444Z,78.71
2023-03-01T15:37:02.256Z,80.04
2023-03-01T15:39:40.361Z,79.24
2023-03-01T15:42:12.323Z,79.66
2023-03-01T15:44:44.361Z,78.98
2023-03-01T15:47:30.731Z,78.75
2023-03-01T15:49:59.095Z,78.48
2023-03-01T15:52:41.929Z,76.04
2023-03-01T15:55:20.280Z,75.17
2023-03-01T15:57:47.039Z,74.58
2023-03-01T16:00:14.538Z,74.87
2023-03-01T16:02:42.274Z,75.11
2023-03-01T16:05:30.490Z,75.20
2023-03-01T16:07:57.609Z,75.02
2023-03-01T16:10:25.070Z,75.73
2023-03-01T16:12:53.442Z,76.49
2023-03-01T16:15:29.416Z,77.01
2023-03-01T16:17:58.990Z,78.24
2023-03-01T16:20:29.163Z,78.66
2023-03-01T16:23:07.393Z,78.92
2023-03-01T16:25:34.524Z,79.49
2023-03-01T16:28:05.703Z,80.43
2023-03-01T16:30:32.609Z,80.32
2023-03-01T16:32:59.439Z,80.73
2023-03-01T16:35:26.254Z,80.05
2023-03-01T16:37:54.831Z,80.56
2023-03-01T16:40:27.920Z,80.35
2023-03-01T16:43:01.071Z,80.93
2023-03-01T16:45:29.871Z,81.06
2023-03-01T16:47:56.454Z,81.35
2023-03-01T16:50:23.570Z,81.54
2023-03-01T16:52:50.212Z,81.67
2023-03-01T16:55:16.795Z,81.69
2023-03-01T16:57:43.444Z,82.53
2023-03-01T17:00:12.124Z,82.99
2023-03-01T17:02:38.831Z,83.06
2023-03-01T17:05:06.684Z,83.75
2023-03-01T17:07:36.904Z,83.73
2023-03-01T17:10:05.709Z,84.04
2023-03-01T17:12:33.034Z,84.47
2023-03-01T17:14:59.554Z,84.71
2023-03-01T17:17:26.504Z,84.79
2023-03-01T17:19:53.872Z,85.62
2023-03-01T17:22:20.435Z,85.92
2023-03-01T17:24:47.029Z,86.35
2023-03-01T17:27:14.045Z,87.18
2023-03-01T17:29:40.912Z,86.99
2023-03-01T17:32:07.850Z,87.62
2023-03-01T17:34:34.802Z,88.14
2023-03-01T17:37:01.384Z,88.31
2023-03-01T17:39:32.287Z,88.93
2023-03-01T17:41:59.173Z,89.44
2023-03-01T17:44:25.922Z,89.75
2023-03-01T17:46:52.462Z,90.49
2023-03-01T17:49:18.971Z,90.27
2023-03-01T17:51:45.612Z,90.67
2023-03-01T17:54:12.287Z,90.91
2023-03-01T17:56:38.907Z,91.95
2023-03-01T17:59:06.229Z,93.61
2023-03-01T18:01:33.781Z,94.57
2023-03-01T18:04:00.709Z,95.45
2023-03-01T18:06:28.702Z,96.40
2023-03-01T18:08:56.457Z,96.68
2023-03-01T18:11:24.354Z,96.89
2023-03-01T18:13:51.383Z,96.98
2023-03-01T18:16:19.557Z,97.00
2023-03-01T18:18:46.543Z,97.88
2023-03-01T18:21:13.952Z,98.16
2023-03-01T18:23:40.633Z,98.72
2023-03-01T18:26:09.623Z,98.17
2023-03-01T18:28:37.382Z,98.46
2023-03-01T18:31:08.468Z,98.41
2023-03-01T18:33:35.277Z,99.54
2023-03-01T18:36:02.290Z,99.16
2023-03-01T18:38:29.626Z,99.69
2023-03-01T18:40:56.505Z,99.44
2023-03-01T18:43:23.715Z,99.74
2023-03-01T18:45:56.693Z,99.45
2023-03-01T18:48:24.187Z,100.00
2023-03-01T18:50:50.870Z,100.00
2023-03-01T18:53:17.537Z,100.00
2023-03-01T18:55:46.989Z,100.00
2023-03-01T18:58:13.493Z,100.00
2023-03-01T19:00:40.030Z,100.00
2023-03-01T19:03:06.804Z,100.00
2023-03-01T19:05:33.356Z,100.00
2023-03-01T19:07:59.932Z,100.00
2023-03-01T19:10:26.428Z,100.00
2023-03-01T19:12:52.901Z,100.00
2023-03-01T19:15:23.178Z,100.00
2023-03-01T19:17:49.762Z,100.00
2023-03-01T19:20:16.540Z,100.00
2023-03-01T19:22:43.091Z,100.00
2023-03-01T19:25:10.026Z,100.00
2023-03-01T19:27:36.764Z,100.00
2023-03-01T19:30:03.715Z,100.00
2023-03-01T19:32:30.248Z,100.00
2023-03-01T19:34:57.206Z,100.00
2023-03-01T19:37:24.028Z,100.00
2023-03-01T19:39:50.784Z,100.00
2023-03-01T19:42:17.755Z,100.00
2023-03-01T19:44:44.478Z,100.00
2023-03-01T19:47:12.248Z,100.00
2023-03-01T19:49:38.904Z,100.00
2023-03-01T19:52:05.461Z,100.00
2023-03-01T19:54:33.209Z,100.00
2023-03-01T19:57:00.751Z,100.00
2023-03-01T19:59:28.450Z,100.00
2023-03-01T20:01:55.955Z,100.00
2023-03-01T20:04:22.706Z,100.00
2023-03-01T20:06:49.656Z,100.00
2023-03-01T20:09:21.921Z,100.00
2023-03-01T20:11:49.288Z,100.00
2023-03-01T20:14:16.067Z,100.00
2023-03-01T20:16:42.622Z,100.00
2023-03-01T20:19:09.415Z,100.00
2023-03-01T20:21:36.122Z,100.00
2023-03-01T20:24:02.681Z,100.00
2023-03-01T20:26:30.683Z,100.00
2023-03-01T20:28:57.356Z,100.00
2023-03-01T20:31:29.207Z,100.00
2023-03-01T20:33:58.592Z,100.00
2023-03-01T20:36:25.501Z,100.00
2023-03-01T20:38:53.393Z,100.00
2023-03-01T20:41:20.312Z,100.00
2023-03-01T20:43:54.770Z,100.00
2023-03-01T20:46:23.224Z,100.00
2023-03-01T20:48:53.546Z,100.00
2023-03-01T20:51:20.194Z,100.00
2023-03-01T20:53:46.897Z,100.00
2023-03-01T20:56:15.158Z,100.00
2023-03-01T20:58:42.174Z,100.00
2023-03-01T21:01:13.619Z,100.00
2023-03-01T21:03:41.366Z,100.00
2023-03-01T21:06:07.955Z,100.00
2023-03-01T21:08:35.168Z,100.00
2023-03-01T21:11:02.410Z,100.00
2023-03-01T21:13:29.393Z,100.00
2023-03-01T21:15:58.251Z,100.00
2023-03-01T21:18:29.738Z,100.00
2023-03-01T21:21:00.590Z,100.00
2023-03-01T21:23:29.190Z,100.00
2023-03-01T21:26:04.548Z,100.00
2023-03-01T21:28:33.260Z,100.00
2023-03-01T21:31:23.925Z,100.00
2023-03-01T21:33:52.810Z,100.00
2023-03-01T21:36:20.350Z,100.00
2023-03-01T21:38:48.620Z,100.00
2023-03-01T21:41:21.407Z,100.00
2023-03-01T21:43:49.320Z,100.00
2023-03-01T21:46:18.354Z,100.00
2023-03-01T21:48:46.006Z,100.00
2023-03-01T21:51:15.043Z,100.00
2023-03-01T21:53:41.664Z,100.00
2023-03-01T21:56:09.769Z,100.00
2023-03-01T21:58:36.409Z,100.00
2023-03-01T22:01:11.454Z,100.00
2023-03-01T22:03:45.227Z,100.00
2023-03-01T22:06:19.142Z,100.00
2023-03-01T22:08:50.211Z,100.00
2023-03-01T22:11:20.070Z,100.00
2023-03-01T22:13:49.461Z,100.00
2023-03-01T22:16:16.812Z,100.00
2023-03-01T22:18:43.370Z,100.00
2023-03-01T22:21:11.088Z,100.00
2023-03-01T22:23:39.067Z,100.00
2023-03-01T22:26:06.345Z,100.00
2023-03-01T22:28:33.089Z,100.00
2023-03-01T22:31:03.906Z,100.00
2023-03-01T22:33:30.515Z,100.00
2023-03-01T22:35:57.006Z,100.00
2023-03-01T22:38:23.600Z,100.00
2023-03-01T22:41:00.726Z,100.00
2023-03-01T22:43:28.171Z,100.00
2023-03-01T22:45:55.237Z,100.00
2023-03-01T22:48:21.958Z,100.00
2023-03-01T22:50:49.009Z,100.00
2023-03-01T22:53:15.680Z,100.00
2023-03-01T22:55:42.822Z,100.00
2023-03-01T22:58:09.544Z,100.00
2023-03-01T23:00:36.340Z,100.00
2023-03-01T23:03:03.221Z,100.00
2023-03-01T23:05:29.853Z,100.00
2023-03-01T23:07:56.408Z,100.00
2023-03-01T23:10:23.057Z,100.00
2023-03-01T23:12:49.627Z,100.00
2023-03-01T23:15:16.298Z,100.00
2023-03-01T23:17:42.895Z,100.00
2023-03-01T23:20:10.408Z,100.00
2023-03-01T23:22:38.152Z,100.00
2023-03-01T23:25:05.479Z,100.00
2023-03-01T23:27:32.040Z,100.00
2023-03-01T23:29:59.313Z,100.00
2023-03-01T23:32:25.850Z,100.00
2023-03-01T23:34:52.517Z,100.00
2023-03-01T23:37:19.057Z,100.00
2023-03-01T23:39:45.760Z,100.00
2023-03-01T23:42:12.262Z,100.00
2023-03-01T23:44:40.837Z,100.00
2023-03-01T23:47:07.341Z,100.00
2023-03-01T23:49:33.929Z,100.00
2023-03-01T23:52:01.473Z,100.00
2023-03-01T23:54:28.026Z,100.00
2023-03-01T23:56:54.632Z,100.00
2023-03-01T23:59:23.338Z,100.00
